sensor_id;sensor_type;location;lat;lon;timestamp;pressure;altitude;pressure_sealevel;temperature;humidity
56894;BME280;43392;50.078;13.704;2023-11-19T00:01:57;97077.63;;;3.70;84.08
56894;BME280;43392;50.078;13.704;2023-11-19T00:04:23;97084.97;;;3.68;84.17
56894;BME280;43392;50.078;13.704;2023-11-19T00:06:51;97072.78;;;3.67;84.35
56894;BME280;43392;50.078;13.704;2023-11-19T00:09:18;97072.97;;;3.66;84.54
56894;BME280;43392;50.078;13.704;2023-11-19T00:11:44;97066.31;;;3.63;84.60
56894;BME280;43392;50.078;13.704;2023-11-19T00:14:12;97063.66;;;3.63;84.67
56894;BME280;43392;50.078;13.704;2023-11-19T00:16:39;97054.09;;;3.62;84.96
56894;BME280;43392;50.078;13.704;2023-11-19T00:19:05;97049.81;;;3.61;84.92
56894;BME280;43392;50.078;13.704;2023-11-19T00:21:33;97049.03;;;3.61;84.98
56894;BME280;43392;50.078;13.704;2023-11-19T00:24:03;97049.81;;;3.61;85.12
56894;BME280;43392;50.078;13.704;2023-11-19T00:26:30;97028.59;;;3.61;85.29
56894;BME280;43392;50.078;13.704;2023-11-19T00:28:57;97017.97;;;3.61;85.20
56894;BME280;43392;50.078;13.704;2023-11-19T00:31:24;97026.53;;;3.63;85.46
56894;BME280;43392;50.078;13.704;2023-11-19T00:33:53;97027.31;;;3.64;85.37
56894;BME280;43392;50.078;13.704;2023-11-19T00:36:20;97038.16;;;3.62;85.60
56894;BME280;43392;50.078;13.704;2023-11-19T00:38:49;97028.38;;;3.63;85.81
56894;BME280;43392;50.078;13.704;2023-11-19T00:41:19;97009.47;;;3.59;86.13
56894;BME280;43392;50.078;13.704;2023-11-19T00:43:46;97011.41;;;3.64;85.83
56894;BME280;43392;50.078;13.704;2023-11-19T00:46:12;96997.94;;;3.65;85.77
56894;BME280;43392;50.078;13.704;2023-11-19T00:48:39;96994.47;;;3.65;85.83
56894;BME280;43392;50.078;13.704;2023-11-19T00:51:06;96983.31;;;3.63;85.95
56894;BME280;43392;50.078;13.704;2023-11-19T00:53:33;96978.22;;;3.61;85.87
56894;BME280;43392;50.078;13.704;2023-11-19T00:56:00;96981.09;;;3.60;85.98
56894;BME280;43392;50.078;13.704;2023-11-19T00:58:28;96980.09;;;3.61;86.08
56894;BME280;43392;50.078;13.704;2023-11-19T01:00:54;96984.56;;;3.60;86.32
56894;BME280;43392;50.078;13.704;2023-11-19T01:03:22;96979.47;;;3.59;86.19
56894;BME280;43392;50.078;13.704;2023-11-19T01:05:49;96976.38;;;3.62;86.24
56894;BME280;43392;50.078;13.704;2023-11-19T01:08:17;96963.34;;;3.60;86.34
56894;BME280;43392;50.078;13.704;2023-11-19T01:10:44;96952.41;;;3.57;86.49
56894;BME280;43392;50.078;13.704;2023-11-19T01:13:11;96947.56;;;3.54;86.32
56894;BME280;43392;50.078;13.704;2023-11-19T01:15:39;96955.28;;;3.55;86.49
56894;BME280;43392;50.078;13.704;2023-11-19T01:18:06;96942.25;;;3.54;86.77
56894;BME280;43392;50.078;13.704;2023-11-19T01:20:34;96941.47;;;3.53;86.82
56894;BME280;43392;50.078;13.704;2023-11-19T01:23:01;96930.88;;;3.53;86.84
56894;BME280;43392;50.078;13.704;2023-11-19T01:25:27;96929.81;;;3.54;86.88
56894;BME280;43392;50.078;13.704;2023-11-19T01:27:54;96936.72;;;3.55;87.09
56894;BME280;43392;50.078;13.704;2023-11-19T01:30:23;96936.50;;;3.57;86.96
56894;BME280;43392;50.078;13.704;2023-11-19T01:32:51;96934.66;;;3.57;87.22
56894;BME280;43392;50.078;13.704;2023-11-19T01:35:18;96924.28;;;3.56;87.28
56894;BME280;43392;50.078;13.704;2023-11-19T01:37:44;96925.44;;;3.60;87.10
56894;BME280;43392;50.078;13.704;2023-11-19T01:40:12;96911.94;;;3.61;87.28
56894;BME280;43392;50.078;13.704;2023-11-19T01:42:38;96914.38;;;3.63;87.18
56894;BME280;43392;50.078;13.704;2023-11-19T01:45:06;96909.88;;;3.63;87.18
56894;BME280;43392;50.078;13.704;2023-11-19T01:47:34;96913.19;;;3.59;87.41
56894;BME280;43392;50.078;13.704;2023-11-19T01:50:03;96927.06;;;3.61;87.42
56894;BME280;43392;50.078;13.704;2023-11-19T01:52:34;96918.84;;;3.62;87.50
56894;BME280;43392;50.078;13.704;2023-11-19T01:55:02;96905.34;;;3.64;87.66
56894;BME280;43392;50.078;13.704;2023-11-19T01:57:28;96890.25;;;3.64;87.66
56894;BME280;43392;50.078;13.704;2023-11-19T01:59:55;96884.16;;;3.64;87.71
56894;BME280;43392;50.078;13.704;2023-11-19T02:02:22;96878.84;;;3.64;87.75
56894;BME280;43392;50.078;13.704;2023-11-19T02:04:49;96868.25;;;3.64;87.42
56894;BME280;43392;50.078;13.704;2023-11-19T02:07:19;96871.69;;;3.64;87.77
56894;BME280;43392;50.078;13.704;2023-11-19T02:09:45;96879.09;;;3.62;88.08
56894;BME280;43392;50.078;13.704;2023-11-19T02:12:12;96872.75;;;3.63;88.13
56894;BME280;43392;50.078;13.704;2023-11-19T02:14:39;96873.53;;;3.64;88.09
56894;BME280;43392;50.078;13.704;2023-11-19T02:17:05;96849.91;;;3.62;88.03
56894;BME280;43392;50.078;13.704;2023-11-19T02:19:32;96837.22;;;3.64;88.17
56894;BME280;43392;50.078;13.704;2023-11-19T02:21:58;96835.16;;;3.66;88.15
56894;BME280;43392;50.078;13.704;2023-11-19T02:24:29;96830.41;;;3.68;88.23
56894;BME280;43392;50.078;13.704;2023-11-19T02:27:02;96843.44;;;3.70;88.06
56894;BME280;43392;50.078;13.704;2023-11-19T02:29:33;96834.44;;;3.71;88.12
56894;BME280;43392;50.078;13.704;2023-11-19T02:32:01;96846.66;;;3.72;88.02
56894;BME280;43392;50.078;13.704;2023-11-19T02:34:28;96847.47;;;3.72;87.98
56894;BME280;43392;50.078;13.704;2023-11-19T02:36:56;96834.78;;;3.74;87.95
56894;BME280;43392;50.078;13.704;2023-11-19T02:39:22;96822.34;;;3.75;87.94
56894;BME280;43392;50.078;13.704;2023-11-19T02:41:49;96819.69;;;3.75;87.86
56894;BME280;43392;50.078;13.704;2023-11-19T02:44:18;96796.84;;;3.74;87.94
56894;BME280;43392;50.078;13.704;2023-11-19T02:46:46;96785.69;;;3.72;87.86
56894;BME280;43392;50.078;13.704;2023-11-19T02:49:13;96771.41;;;3.73;87.96
56894;BME280;43392;50.078;13.704;2023-11-19T02:51:40;96757.88;;;3.74;87.74
56894;BME280;43392;50.078;13.704;2023-11-19T02:54:06;96757.31;;;3.72;87.86
56894;BME280;43392;50.078;13.704;2023-11-19T02:56:33;96765.28;;;3.72;88.06
56894;BME280;43392;50.078;13.704;2023-11-19T02:59:02;96759.97;;;3.72;88.13
56894;BME280;43392;50.078;13.704;2023-11-19T03:01:34;96759.72;;;3.74;88.19
56894;BME280;43392;50.078;13.704;2023-11-19T03:04:03;96768.97;;;3.71;88.00
56894;BME280;43392;50.078;13.704;2023-11-19T03:06:29;96759.16;;;3.72;87.97
56894;BME280;43392;50.078;13.704;2023-11-19T03:08:57;96756.25;;;3.73;88.17
56894;BME280;43392;50.078;13.704;2023-11-19T03:11:23;96746.16;;;3.70;88.12
56894;BME280;43392;50.078;13.704;2023-11-19T03:13:50;96739.78;;;3.71;88.11
56894;BME280;43392;50.078;13.704;2023-11-19T03:16:17;96733.47;;;3.72;88.31
56894;BME280;43392;50.078;13.704;2023-11-19T03:18:44;96735.88;;;3.74;88.22
56894;BME280;43392;50.078;13.704;2023-11-19T03:21:12;96720.75;;;3.74;88.24
56894;BME280;43392;50.078;13.704;2023-11-19T03:23:39;96722.38;;;3.75;88.31
56894;BME280;43392;50.078;13.704;2023-11-19T03:26:06;96709.34;;;3.74;88.20
56894;BME280;43392;50.078;13.704;2023-11-19T03:28:33;96704.84;;;3.74;88.42
56894;BME280;43392;50.078;13.704;2023-11-19T03:31:00;96707.50;;;3.74;88.29
56894;BME280;43392;50.078;13.704;2023-11-19T03:33:26;96706.47;;;3.75;88.43
56894;BME280;43392;50.078;13.704;2023-11-19T03:35:53;96697.47;;;3.76;88.51
56894;BME280;43392;50.078;13.704;2023-11-19T03:38:23;96704.59;;;3.76;88.63
56894;BME280;43392;50.078;13.704;2023-11-19T03:40:49;96713.13;;;3.78;88.65
56894;BME280;43392;50.078;13.704;2023-11-19T03:43:16;96715.00;;;3.77;88.59
56894;BME280;43392;50.078;13.704;2023-11-19T03:45:44;96712.09;;;3.79;88.72
56894;BME280;43392;50.078;13.704;2023-11-19T03:48:11;96700.44;;;3.80;88.75
56894;BME280;43392;50.078;13.704;2023-11-19T03:50:38;96704.69;;;3.81;88.88
56894;BME280;43392;50.078;13.704;2023-11-19T03:53:05;96690.63;;;3.80;88.85
56894;BME280;43392;50.078;13.704;2023-11-19T03:55:33;96695.94;;;3.80;88.72
56894;BME280;43392;50.078;13.704;2023-11-19T03:57:59;96687.97;;;3.80;88.72
56894;BME280;43392;50.078;13.704;2023-11-19T04:00:26;96685.09;;;3.82;88.88
56894;BME280;43392;50.078;13.704;2023-11-19T04:02:53;96677.38;;;3.80;88.99
56894;BME280;43392;50.078;13.704;2023-11-19T04:05:19;96667.81;;;3.79;88.83
56894;BME280;43392;50.078;13.704;2023-11-19T04:07:46;96662.50;;;3.79;88.93
56894;BME280;43392;50.078;13.704;2023-11-19T04:10:12;96652.72;;;3.80;89.03
56894;BME280;43392;50.078;13.704;2023-11-19T04:12:43;96648.44;;;3.79;89.09
56894;BME280;43392;50.078;13.704;2023-11-19T04:15:10;96641.78;;;3.76;89.16
56894;BME280;43392;50.078;13.704;2023-11-19T04:17:37;96643.13;;;3.79;89.16
56894;BME280;43392;50.078;13.704;2023-11-19T04:20:05;96639.94;;;3.77;89.16
56894;BME280;43392;50.078;13.704;2023-11-19T04:22:36;96633.00;;;3.76;89.25
56894;BME280;43392;50.078;13.704;2023-11-19T04:25:03;96624.00;;;3.77;89.36
56894;BME280;43392;50.078;13.704;2023-11-19T04:27:30;96611.78;;;3.76;89.56
56894;BME280;43392;50.078;13.704;2023-11-19T04:29:58;96616.06;;;3.77;89.69
56894;BME280;43392;50.078;13.704;2023-11-19T04:32:27;96602.56;;;3.78;89.90
56894;BME280;43392;50.078;13.704;2023-11-19T04:34:53;96603.91;;;3.81;89.80
56894;BME280;43392;50.078;13.704;2023-11-19T04:37:20;96605.53;;;3.82;89.85
56894;BME280;43392;50.078;13.704;2023-11-19T04:39:46;96606.56;;;3.81;89.89
56894;BME280;43392;50.078;13.704;2023-11-19T04:42:13;96598.38;;;3.82;90.04
56894;BME280;43392;50.078;13.704;2023-11-19T04:44:42;96605.28;;;3.83;89.98
56894;BME280;43392;50.078;13.704;2023-11-19T04:47:10;96592.84;;;3.84;90.04
56894;BME280;43392;50.078;13.704;2023-11-19T04:49:40;96588.09;;;3.86;90.12
56894;BME280;43392;50.078;13.704;2023-11-19T04:52:08;96574.81;;;3.86;90.12
56894;BME280;43392;50.078;13.704;2023-11-19T04:54:34;96578.53;;;3.85;89.99
56894;BME280;43392;50.078;13.704;2023-11-19T04:57:01;96578.53;;;3.85;90.12
56894;BME280;43392;50.078;13.704;2023-11-19T04:59:28;96560.75;;;3.85;90.39
56894;BME280;43392;50.078;13.704;2023-11-19T05:01:54;96560.19;;;3.83;90.17
56894;BME280;43392;50.078;13.704;2023-11-19T05:04:22;96556.19;;;3.81;90.41
56894;BME280;43392;50.078;13.704;2023-11-19T05:06:49;96563.28;;;3.75;90.85
56894;BME280;43392;50.078;13.704;2023-11-19T05:09:15;96557.47;;;3.78;90.74
56894;BME280;43392;50.078;13.704;2023-11-19T05:11:43;96555.38;;;3.80;90.79
56894;BME280;43392;50.078;13.704;2023-11-19T05:14:10;96565.50;;;3.83;90.77
56894;BME280;43392;50.078;13.704;2023-11-19T05:16:39;96554.41;;;3.86;90.68
56894;BME280;43392;50.078;13.704;2023-11-19T05:19:05;96549.13;;;3.86;90.68
56894;BME280;43392;50.078;13.704;2023-11-19T05:21:33;96543.34;;;3.89;90.75
56894;BME280;43392;50.078;13.704;2023-11-19T05:24:01;96533.28;;;3.91;90.82
56894;BME280;43392;50.078;13.704;2023-11-19T05:26:30;96527.16;;;3.91;91.05
56894;BME280;43392;50.078;13.704;2023-11-19T05:28:59;96514.72;;;3.91;91.09
56894;BME280;43392;50.078;13.704;2023-11-19T05:31:26;96503.84;;;3.93;91.23
56894;BME280;43392;50.078;13.704;2023-11-19T05:33:52;96506.03;;;3.96;91.32
56894;BME280;43392;50.078;13.704;2023-11-19T05:36:19;96506.03;;;3.96;91.18
56894;BME280;43392;50.078;13.704;2023-11-19T05:38:47;96523.56;;;3.97;91.36
56894;BME280;43392;50.078;13.704;2023-11-19T05:41:14;96525.41;;;3.96;91.35
56894;BME280;43392;50.078;13.704;2023-11-19T05:43:40;96519.28;;;3.96;91.51
56894;BME280;43392;50.078;13.704;2023-11-19T05:46:07;96530.22;;;3.99;91.52
56894;BME280;43392;50.078;13.704;2023-11-19T05:48:34;96522.25;;;3.99;91.46
56894;BME280;43392;50.078;13.704;2023-11-19T05:51:00;96518.78;;;3.99;91.55
56894;BME280;43392;50.078;13.704;2023-11-19T05:53:28;96515.34;;;3.98;91.72
56894;BME280;43392;50.078;13.704;2023-11-19T05:55:56;96499.91;;;3.95;91.73
56894;BME280;43392;50.078;13.704;2023-11-19T05:58:24;96502.25;;;3.92;92.19
56894;BME280;43392;50.078;13.704;2023-11-19T06:00:54;96507.56;;;3.92;92.08
56894;BME280;43392;50.078;13.704;2023-11-19T06:03:21;96506.19;;;3.89;91.59
56894;BME280;43392;50.078;13.704;2023-11-19T06:05:47;96503.78;;;3.88;91.99
56894;BME280;43392;50.078;13.704;2023-11-19T06:08:14;96493.41;;;3.86;92.17
56894;BME280;43392;50.078;13.704;2023-11-19T06:10:41;96488.13;;;3.86;92.34
56894;BME280;43392;50.078;13.704;2023-11-19T06:13:10;96493.91;;;3.83;92.54
56894;BME280;43392;50.078;13.704;2023-11-19T06:15:37;96473.25;;;3.85;92.77
56894;BME280;43392;50.078;13.704;2023-11-19T06:18:03;96494.78;;;3.89;92.85
56894;BME280;43392;50.078;13.704;2023-11-19T06:20:30;96490.84;;;3.91;93.05
56894;BME280;43392;50.078;13.704;2023-11-19T06:22:57;96501.75;;;3.95;93.11
56894;BME280;43392;50.078;13.704;2023-11-19T06:25:24;96498.88;;;3.96;93.10
56894;BME280;43392;50.078;13.704;2023-11-19T06:27:51;96485.13;;;3.99;93.28
56894;BME280;43392;50.078;13.704;2023-11-19T06:30:20;96471.59;;;4.01;93.34
56894;BME280;43392;50.078;13.704;2023-11-19T06:32:46;96468.41;;;3.99;93.58
56894;BME280;43392;50.078;13.704;2023-11-19T06:35:13;96466.84;;;4.03;93.74
56894;BME280;43392;50.078;13.704;2023-11-19T06:37:40;96484.38;;;4.04;93.78
56894;BME280;43392;50.078;13.704;2023-11-19T06:40:08;96476.66;;;4.02;93.81
56894;BME280;43392;50.078;13.704;2023-11-19T06:42:35;96481.97;;;4.02;93.79
56894;BME280;43392;50.078;13.704;2023-11-19T06:45:02;96481.19;;;4.02;94.24
56894;BME280;43392;50.078;13.704;2023-11-19T06:47:30;96490.97;;;4.01;94.42
56894;BME280;43392;50.078;13.704;2023-11-19T06:49:58;96486.22;;;4.03;94.40
56894;BME280;43392;50.078;13.704;2023-11-19T06:52:24;96479.06;;;4.04;94.78
56894;BME280;43392;50.078;13.704;2023-11-19T06:54:51;96483.09;;;4.07;94.80
56894;BME280;43392;50.078;13.704;2023-11-19T06:57:18;96481.53;;;4.11;94.95
56894;BME280;43392;50.078;13.704;2023-11-19T06:59:45;96462.47;;;4.14;95.03
56894;BME280;43392;50.078;13.704;2023-11-19T07:02:12;96465.44;;;4.17;95.25
56894;BME280;43392;50.078;13.704;2023-11-19T07:04:41;96463.31;;;4.19;94.97
56894;BME280;43392;50.078;13.704;2023-11-19T07:07:07;96467.34;;;4.22;95.02
56894;BME280;43392;50.078;13.704;2023-11-19T07:09:35;96459.69;;;4.25;95.10
56894;BME280;43392;50.078;13.704;2023-11-19T07:12:03;96467.19;;;4.28;95.28
56894;BME280;43392;50.078;13.704;2023-11-19T07:14:30;96473.84;;;4.31;95.29
56894;BME280;43392;50.078;13.704;2023-11-19T07:16:56;96490.88;;;4.35;95.43
56894;BME280;43392;50.078;13.704;2023-11-19T07:19:23;96493.03;;;4.38;95.45
56894;BME280;43392;50.078;13.704;2023-11-19T07:21:51;96481.91;;;4.41;95.52
56894;BME280;43392;50.078;13.704;2023-11-19T07:24:19;96483.50;;;4.42;95.73
56894;BME280;43392;50.078;13.704;2023-11-19T07:26:47;96483.56;;;4.47;95.52
56894;BME280;43392;50.078;13.704;2023-11-19T07:29:14;96483.09;;;4.50;95.88
56894;BME280;43392;50.078;13.704;2023-11-19T07:31:41;96475.66;;;4.52;95.79
56894;BME280;43392;50.078;13.704;2023-11-19T07:34:09;96485.81;;;4.55;95.90
56894;BME280;43392;50.078;13.704;2023-11-19T07:36:37;96497.78;;;4.57;95.91
56894;BME280;43392;50.078;13.704;2023-11-19T07:39:05;96495.97;;;4.63;95.98
56894;BME280;43392;50.078;13.704;2023-11-19T07:41:32;96499.19;;;4.65;96.14
56894;BME280;43392;50.078;13.704;2023-11-19T07:43:59;96490.97;;;4.66;96.32
56894;BME280;43392;50.078;13.704;2023-11-19T07:46:25;96484.66;;;4.72;96.06
56894;BME280;43392;50.078;13.704;2023-11-19T07:48:52;96478.59;;;4.77;96.16
56894;BME280;43392;50.078;13.704;2023-11-19T07:51:19;96474.94;;;4.83;96.07
56894;BME280;43392;50.078;13.704;2023-11-19T07:53:45;96484.00;;;4.87;96.20
56894;BME280;43392;50.078;13.704;2023-11-19T07:56:13;96480.31;;;4.88;96.37
56894;BME280;43392;50.078;13.704;2023-11-19T07:58:40;96482.19;;;4.93;96.34
56894;BME280;43392;50.078;13.704;2023-11-19T08:01:08;96483.00;;;4.93;96.46
56894;BME280;43392;50.078;13.704;2023-11-19T08:03:37;96476.59;;;4.89;96.35
56894;BME280;43392;50.078;13.704;2023-11-19T08:06:05;96482.53;;;4.96;96.64
56894;BME280;43392;50.078;13.704;2023-11-19T08:08:32;96483.88;;;4.99;96.85
56894;BME280;43392;50.078;13.704;2023-11-19T08:11:00;96483.66;;;5.05;96.82
56894;BME280;43392;50.078;13.704;2023-11-19T08:13:28;96479.47;;;5.14;96.86
56894;BME280;43392;50.078;13.704;2023-11-19T08:15:54;96487.00;;;5.22;96.61
56894;BME280;43392;50.078;13.704;2023-11-19T08:18:21;96487.06;;;5.27;96.40
56894;BME280;43392;50.078;13.704;2023-11-19T08:20:48;96472.78;;;5.38;96.24
56894;BME280;43392;50.078;13.704;2023-11-19T08:23:18;96466.44;;;5.45;96.12
56894;BME280;43392;50.078;13.704;2023-11-19T08:25:44;96463.25;;;5.48;96.60
56894;BME280;43392;50.078;13.704;2023-11-19T08:28:11;96477.63;;;5.47;96.37
56894;BME280;43392;50.078;13.704;2023-11-19T08:30:39;96451.59;;;5.49;96.65
56894;BME280;43392;50.078;13.704;2023-11-19T08:33:06;96455.28;;;5.48;96.47
56894;BME280;43392;50.078;13.704;2023-11-19T08:35:33;96462.28;;;5.59;96.67
56894;BME280;43392;50.078;13.704;2023-11-19T08:37:59;96458.06;;;5.63;96.53
56894;BME280;43392;50.078;13.704;2023-11-19T08:40:27;96442.41;;;5.66;96.82
56894;BME280;43392;50.078;13.704;2023-11-19T08:42:53;96442.41;;;5.66;96.79
56894;BME280;43392;50.078;13.704;2023-11-19T08:45:21;96453.03;;;5.66;96.80
56894;BME280;43392;50.078;13.704;2023-11-19T08:47:49;96434.41;;;5.66;97.10
56894;BME280;43392;50.078;13.704;2023-11-19T08:50:16;96430.97;;;5.66;97.21
56894;BME280;43392;50.078;13.704;2023-11-19T08:52:42;96409.69;;;5.66;97.22
56894;BME280;43392;50.078;13.704;2023-11-19T08:55:09;96396.63;;;5.59;97.29
56894;BME280;43392;50.078;13.704;2023-11-19T08:57:37;96398.50;;;5.64;97.51
56894;BME280;43392;50.078;13.704;2023-11-19T09:00:04;96394.22;;;5.63;97.80
56894;BME280;43392;50.078;13.704;2023-11-19T09:02:33;96409.66;;;5.61;97.71
56894;BME280;43392;50.078;13.704;2023-11-19T09:05:01;96422.94;;;5.61;98.00
56894;BME280;43392;50.078;13.704;2023-11-19T09:07:28;96431.72;;;5.61;98.24
56894;BME280;43392;50.078;13.704;2023-11-19T09:09:54;96458.06;;;5.63;98.36
56894;BME280;43392;50.078;13.704;2023-11-19T09:12:21;96445.28;;;5.65;98.71
56894;BME280;43392;50.078;13.704;2023-11-19T09:14:48;96469.28;;;5.70;98.67
56894;BME280;43392;50.078;13.704;2023-11-19T09:17:15;96434.75;;;5.80;98.58
56894;BME280;43392;50.078;13.704;2023-11-19T09:19:43;96425.88;;;6.06;97.84
56894;BME280;43392;50.078;13.704;2023-11-19T09:22:11;96456.53;;;6.19;97.69
56894;BME280;43392;50.078;13.704;2023-11-19T09:24:37;96462.69;;;6.24;97.95
56894;BME280;43392;50.078;13.704;2023-11-19T09:27:04;96470.19;;;6.27;97.88
56894;BME280;43392;50.078;13.704;2023-11-19T09:29:32;96473.88;;;6.26;98.08
56894;BME280;43392;50.078;13.704;2023-11-19T09:31:59;96476.28;;;6.28;98.27
56894;BME280;43392;50.078;13.704;2023-11-19T09:34:26;96465.91;;;6.31;98.08
56894;BME280;43392;50.078;13.704;2023-11-19T09:36:53;96450.78;;;6.37;98.23
56894;BME280;43392;50.078;13.704;2023-11-19T09:39:21;96458.50;;;6.43;97.95
56894;BME280;43392;50.078;13.704;2023-11-19T09:41:47;96455.03;;;6.43;98.04
56894;BME280;43392;50.078;13.704;2023-11-19T09:44:14;96451.03;;;6.40;98.11
56894;BME280;43392;50.078;13.704;2023-11-19T09:46:44;96468.16;;;6.64;97.67
56894;BME280;43392;50.078;13.704;2023-11-19T09:49:11;96466.34;;;6.75;97.35
56894;BME280;43392;50.078;13.704;2023-11-19T09:51:39;96463.38;;;6.72;97.69
56894;BME280;43392;50.078;13.704;2023-11-19T09:54:06;96472.47;;;6.76;97.66
56894;BME280;43392;50.078;13.704;2023-11-19T09:56:36;96471.69;;;6.80;97.74
56894;BME280;43392;50.078;13.704;2023-11-19T09:59:04;96460.19;;;6.75;98.16
56894;BME280;43392;50.078;13.704;2023-11-19T10:01:31;96461.81;;;6.76;98.09
56894;BME280;43392;50.078;13.704;2023-11-19T10:03:58;96454.88;;;6.80;98.10
56894;BME280;43392;50.078;13.704;2023-11-19T10:06:25;96452.25;;;6.90;97.96
56894;BME280;43392;50.078;13.704;2023-11-19T10:08:52;96451.19;;;7.01;97.82
56894;BME280;43392;50.078;13.704;2023-11-19T10:11:20;96444.00;;;7.11;97.13
56894;BME280;43392;50.078;13.704;2023-11-19T10:13:48;96444.03;;;7.21;97.01
56894;BME280;43392;50.078;13.704;2023-11-19T10:16:15;96455.47;;;7.22;97.01
56894;BME280;43392;50.078;13.704;2023-11-19T10:18:45;96456.28;;;7.43;96.43
56894;BME280;43392;50.078;13.704;2023-11-19T10:21:12;96453.88;;;7.41;96.51
56894;BME280;43392;50.078;13.704;2023-11-19T10:23:49;96458.66;;;7.54;96.10
56894;BME280;43392;50.078;13.704;2023-11-19T10:26:17;96437.84;;;7.71;95.50
56894;BME280;43392;50.078;13.704;2023-11-19T10:28:45;96451.69;;;7.78;95.61
56894;BME280;43392;50.078;13.704;2023-11-19T10:31:14;96449.81;;;7.84;95.29
56894;BME280;43392;50.078;13.704;2023-11-19T10:33:41;96450.63;;;7.89;95.06
56894;BME280;43392;50.078;13.704;2023-11-19T10:36:10;96439.66;;;7.96;94.61
56894;BME280;43392;50.078;13.704;2023-11-19T10:38:37;96442.56;;;7.99;94.41
56894;BME280;43392;50.078;13.704;2023-11-19T10:41:04;96452.16;;;8.11;94.38
56894;BME280;43392;50.078;13.704;2023-11-19T10:43:42;96445.72;;;8.27;93.88
56894;BME280;43392;50.078;13.704;2023-11-19T10:46:11;96427.50;;;8.39;93.39
56894;BME280;43392;50.078;13.704;2023-11-19T10:48:39;96423.72;;;8.50;93.63
56894;BME280;43392;50.078;13.704;2023-11-19T10:51:07;96432.25;;;8.57;93.21
56894;BME280;43392;50.078;13.704;2023-11-19T10:53:36;96423.13;;;8.58;93.12
56894;BME280;43392;50.078;13.704;2023-11-19T10:56:06;96414.09;;;8.54;93.55
56894;BME280;43392;50.078;13.704;2023-11-19T10:58:35;96424.50;;;8.50;93.78
56894;BME280;43392;50.078;13.704;2023-11-19T11:01:09;96423.13;;;8.58;94.04
56894;BME280;43392;50.078;13.704;2023-11-19T11:03:41;96427.13;;;8.60;94.29
56894;BME280;43392;50.078;13.704;2023-11-19T11:06:10;96417.25;;;8.61;94.41
56894;BME280;43392;50.078;13.704;2023-11-19T11:08:37;96426.34;;;8.60;95.09
56894;BME280;43392;50.078;13.704;2023-11-19T11:11:06;96433.25;;;8.66;94.88
56894;BME280;43392;50.078;13.704;2023-11-19T11:13:37;96438.84;;;8.69;95.22
56894;BME280;43392;50.078;13.704;2023-11-19T11:16:08;96422.78;;;8.75;95.28
56894;BME280;43392;50.078;13.704;2023-11-19T11:18:35;96434.25;;;8.80;95.41
56894;BME280;43392;50.078;13.704;2023-11-19T11:21:06;96428.03;;;8.90;95.62
56894;BME280;43392;50.078;13.704;2023-11-19T11:26:45;96408.84;;;9.16;95.08
56894;BME280;43392;50.078;13.704;2023-11-19T11:29:24;96410.66;;;9.26;94.76
56894;BME280;43392;50.078;13.704;2023-11-19T11:31:59;96400.72;;;9.31;94.52
56894;BME280;43392;50.078;13.704;2023-11-19T11:34:50;96407.84;;;9.41;93.86
56894;BME280;43392;50.078;13.704;2023-11-19T11:37:26;96413.97;;;9.47;93.82
56894;BME280;43392;50.078;13.704;2023-11-19T11:39:57;96412.22;;;9.61;93.29
56894;BME280;43392;50.078;13.704;2023-11-19T11:42:34;96412.75;;;9.63;93.12
56894;BME280;43392;50.078;13.704;2023-11-19T11:45:03;96412.78;;;9.58;93.42
56894;BME280;43392;50.078;13.704;2023-11-19T11:50:48;96425.22;;;9.44;93.46
56894;BME280;43392;50.078;13.704;2023-11-19T11:53:21;96429.56;;;9.40;93.66
56894;BME280;43392;50.078;13.704;2023-11-19T11:55:57;96424.75;;;9.37;93.81
56894;BME280;43392;50.078;13.704;2023-11-19T11:58:30;96410.31;;;9.32;94.04
56894;BME280;43392;50.078;13.704;2023-11-19T12:00:59;96419.97;;;9.33;93.88
56894;BME280;43392;50.078;13.704;2023-11-19T12:03:28;96413.72;;;9.43;93.83
56894;BME280;43392;50.078;13.704;2023-11-19T12:05:55;96411.75;;;9.54;93.60
56894;BME280;43392;50.078;13.704;2023-11-19T12:08:27;96404.97;;;9.66;93.20
56894;BME280;43392;50.078;13.704;2023-11-19T12:10:55;96400.03;;;9.78;93.11
56894;BME280;43392;50.078;13.704;2023-11-19T12:13:25;96413.13;;;9.80;93.09
56894;BME280;43392;50.078;13.704;2023-11-19T12:16:07;96408.31;;;9.77;93.04
56894;BME280;43392;50.078;13.704;2023-11-19T12:18:34;96397.47;;;9.92;92.87
56894;BME280;43392;50.078;13.704;2023-11-19T12:21:01;96387.59;;;10.11;92.22
56894;BME280;43392;50.078;13.704;2023-11-19T12:23:30;96387.06;;;10.14;92.26
56894;BME280;43392;50.078;13.704;2023-11-19T12:25:57;96402.72;;;10.02;92.50
56894;BME280;43392;50.078;13.704;2023-11-19T12:28:24;96384.38;;;9.90;92.95
56894;BME280;43392;50.078;13.704;2023-11-19T12:30:52;96406.16;;;9.79;93.25
56894;BME280;43392;50.078;13.704;2023-11-19T12:33:19;96409.50;;;9.66;93.57
56894;BME280;43392;50.078;13.704;2023-11-19T12:35:47;96400.56;;;9.52;94.04
56894;BME280;43392;50.078;13.704;2023-11-19T12:38:25;96402.81;;;9.40;94.63
56894;BME280;43392;50.078;13.704;2023-11-19T12:41:07;96381.69;;;9.33;95.02
56894;BME280;43392;50.078;13.704;2023-11-19T12:43:33;96385.72;;;9.30;95.21
56894;BME280;43392;50.078;13.704;2023-11-19T12:46:01;96389.75;;;9.28;95.52
56894;BME280;43392;50.078;13.704;2023-11-19T12:48:28;96367.84;;;9.26;95.48
56894;BME280;43392;50.078;13.704;2023-11-19T12:50:56;96377.22;;;9.23;95.83
56894;BME280;43392;50.078;13.704;2023-11-19T12:53:24;96391.44;;;9.19;96.04
56894;BME280;43392;50.078;13.704;2023-11-19T12:55:52;96380.53;;;9.15;96.32
56894;BME280;43392;50.078;13.704;2023-11-19T12:58:31;96386.69;;;9.11;96.38
56894;BME280;43392;50.078;13.704;2023-11-19T13:01:02;96385.91;;;9.10;96.84
56894;BME280;43392;50.078;13.704;2023-11-19T13:03:29;96391.56;;;9.04;97.52
56894;BME280;43392;50.078;13.704;2023-11-19T13:06:01;96395.84;;;9.05;97.14
56894;BME280;43392;50.078;13.704;2023-11-19T13:08:36;96399.84;;;9.07;97.11
56894;BME280;43392;50.078;13.704;2023-11-19T13:11:04;96375.69;;;9.17;96.99